Time;durP1;ratioP1;P1;durP2;ratioP2;P2;SDS_P1;SDS_P2;PMS_P1;PMS_P2;Temp;Humidity;BMP_temperature;BMP_pressure;BME280_temperature;BME280_humidity;BME280_pressure;Samples;Min_cycle;Max_cycle;Signal;HPM_P1;HPM_P2
2024/02/06 00:01:10;;;;;;;9.77;4.60;;;;;;;14.58;35.86;100262.78;5038159;28;20336;-77
2024/02/06 00:03:36;;;;;;;9.18;4.32;;;;;;;14.73;35.61;100256.91;5019466;28;20113;-77
2024/02/06 00:06:01;;;;;;;8.98;4.38;;;;;;;14.77;35.18;100252.69;5022758;28;20045;-78
2024/02/06 00:08:27;;;;;;;8.57;3.80;;;;;;;14.82;35.25;100266.19;5041700;28;20053;-76
2024/02/06 00:10:52;;;;;;;7.25;3.65;;;;;;;14.82;34.92;100268.06;5030621;28;20032;-77
2024/02/06 00:13:17;;;;;;;7.13;3.95;;;;;;;14.93;34.87;100271.72;5018449;28;20076;-77
2024/02/06 00:15:44;;;;;;;7.85;3.92;;;;;;;14.86;34.66;100258.47;5026871;28;20037;-77
2024/02/06 00:18:10;;;;;;;6.47;3.88;;;;;;;14.98;35.18;100269.13;5022146;28;20029;-77
2024/02/06 00:20:35;;;;;;;6.78;3.85;;;;;;;14.99;34.51;100268.06;5027851;28;20040;-78
2024/02/06 00:23:00;;;;;;;7.75;3.65;;;;;;;14.89;34.49;100265.22;5027840;28;20411;-78
2024/02/06 00:25:26;;;;;;;9.30;4.38;;;;;;;14.97;34.52;100270.19;5027329;28;20056;-77
2024/02/06 00:27:52;;;;;;;7.63;3.60;;;;;;;15.06;34.24;100284.84;5027821;28;20040;-78
2024/02/06 00:30:18;;;;;;;7.53;3.90;;;;;;;15.14;33.69;100283.59;5026607;28;20025;-77
2024/02/06 00:32:44;;;;;;;7.22;3.85;;;;;;;15.02;33.91;100265.72;5027319;28;20032;-76
2024/02/06 00:35:09;;;;;;;6.88;3.90;;;;;;;15.03;33.93;100277.25;5027275;28;20034;-77
2024/02/06 00:37:35;;;;;;;6.97;3.60;;;;;;;14.96;34.13;100292.72;5026239;28;20036;-77
2024/02/06 00:40:00;;;;;;;5.90;3.33;;;;;;;14.91;34.14;100273.84;5026524;28;20055;-76
2024/02/06 00:42:26;;;;;;;7.32;3.50;;;;;;;15.08;33.61;100285.41;5027779;28;20037;-77
2024/02/06 00:44:51;;;;;;;6.75;3.33;;;;;;;15.01;33.90;100292.81;5026634;28;20025;-77
2024/02/06 00:47:16;;;;;;;7.22;3.10;;;;;;;14.90;34.15;100273.03;5027552;28;20034;-77
2024/02/06 00:49:42;;;;;;;6.93;3.60;;;;;;;14.85;34.10;100272.91;5027367;28;20163;-77
2024/02/06 00:52:08;;;;;;;5.93;3.00;;;;;;;14.91;33.91;100295.31;5027684;28;20048;-76
2024/02/06 00:54:33;;;;;;;6.55;3.53;;;;;;;14.81;34.17;100291.41;5027112;28;20033;-77
2024/02/06 00:56:58;;;;;;;6.32;3.00;;;;;;;14.63;34.26;100288.94;5039675;28;20036;-76
2024/02/06 00:59:24;;;;;;;8.30;4.00;;;;;;;14.78;34.62;100302.63;5039397;28;20057;-77
2024/02/06 01:01:50;;;;;;;7.30;3.95;;;;;;;14.69;34.56;100285.28;5026976;28;20033;-77
2024/02/06 01:04:16;;;;;;;6.55;3.60;;;;;;;14.65;34.42;100286.81;5025562;28;20493;-77
2024/02/06 01:06:41;;;;;;;7.03;3.30;;;;;;;14.68;34.72;100291.69;5027033;28;20026;-77
2024/02/06 01:09:06;;;;;;;5.75;3.25;;;;;;;14.57;34.59;100284.53;5029047;28;20036;-76
2024/02/06 01:11:32;;;;;;;8.43;3.50;;;;;;;14.65;35.06;100302.94;5025257;28;20033;-77
2024/02/06 01:13:57;;;;;;;7.38;3.35;;;;;;;14.50;34.67;100289.97;5026683;28;20053;-78
2024/02/06 01:16:23;;;;;;;6.57;3.35;;;;;;;14.32;35.04;100299.00;5025521;28;20030;-76
2024/02/06 01:18:48;;;;;;;6.47;3.38;;;;;;;14.23;34.80;100273.63;5026604;28;20029;-76
2024/02/06 01:21:14;;;;;;;7.43;3.55;;;;;;;14.33;35.14;100273.84;5025309;28;20589;-76
2024/02/06 01:23:40;;;;;;;9.35;4.15;;;;;;;14.25;35.11;100287.63;5026810;28;20024;-77
2024/02/06 01:26:05;;;;;;;6.68;3.40;;;;;;;14.20;35.41;100276.78;5026893;28;20034;-75
2024/02/06 01:28:31;;;;;;;5.82;3.13;;;;;;;14.24;35.46;100275.25;5025301;28;20029;-76
2024/02/06 01:30:56;;;;;;;10.90;3.50;;;;;;;14.15;35.20;100265.97;5014161;28;20148;-77
2024/02/06 01:33:22;;;;;;;7.07;3.42;;;;;;;14.27;35.13;100262.19;5026655;28;20029;-78
2024/02/06 01:35:47;;;;;;;7.57;3.00;;;;;;;14.36;34.79;100257.25;5026575;28;20029;-76
2024/02/06 01:38:13;;;;;;;6.50;3.10;;;;;;;14.39;34.45;100267.50;5025212;28;20026;-75
2024/02/06 01:40:42;;;;;;;5.10;2.70;;;;;;;14.39;34.46;100254.09;5028535;28;20041;-77
2024/02/06 01:43:07;;;;;;;6.32;3.10;;;;;;;14.30;34.38;100247.47;5026424;28;20800;-76
2024/02/06 01:45:33;;;;;;;6.75;3.05;;;;;;;14.31;34.22;100251.78;5026413;28;20112;-77
2024/02/06 01:47:58;;;;;;;7.32;3.00;;;;;;;14.19;33.78;100234.94;5026646;28;20029;-77
2024/02/06 01:50:24;;;;;;;7.47;3.40;;;;;;;14.21;34.50;100254.28;5026581;28;20030;-77
2024/02/06 01:52:51;;;;;;;6.28;3.05;;;;;;;14.26;34.74;100267.78;5025049;28;20051;-77
2024/02/06 01:55:18;;;;;;;6.72;3.10;;;;;;;14.05;34.63;100245.09;5026674;28;20105;-78
2024/02/06 01:57:44;;;;;;;6.90;3.30;;;;;;;14.07;34.85;100270.63;5028531;28;20161;-77
2024/02/06 02:00:10;;;;;;;5.38;2.95;;;;;;;14.15;34.70;100274.00;5031402;28;20116;-76
2024/02/06 02:02:36;;;;;;;7.90;3.20;;;;;;;14.09;34.61;100272.25;5030753;28;20033;-76
2024/02/06 02:05:02;;;;;;;5.53;2.78;;;;;;;13.90;34.59;100226.84;5017887;28;20041;-77
2024/02/06 02:07:30;;;;;;;7.05;3.17;;;;;;;14.01;34.79;100268.06;5023247;28;20041;-77
2024/02/06 02:09:55;;;;;;;6.67;3.30;;;;;;;14.05;34.61;100272.72;5025532;28;20021;-78
2024/02/06 02:12:24;;;;;;;6.18;2.88;;;;;;;14.00;34.63;100269.94;5030158;28;20067;-77
2024/02/06 02:14:51;;;;;;;7.32;3.63;;;;;;;14.11;34.29;100270.16;5024906;28;20041;-78
2024/02/06 02:17:17;;;;;;;6.78;3.28;;;;;;;14.17;34.14;100266.53;5018814;28;20060;-76
2024/02/06 02:19:42;;;;;;;5.28;3.05;;;;;;;14.18;34.07;100282.41;5029548;28;20067;-77
2024/02/06 02:22:08;;;;;;;7.30;3.10;;;;;;;14.25;33.71;100263.47;5030367;28;20545;-78
2024/02/06 02:24:33;;;;;;;6.72;3.10;;;;;;;14.35;33.60;100277.09;5028726;28;20632;-77
2024/02/06 02:26:59;;;;;;;6.93;3.25;;;;;;;14.29;33.54;100256.56;5022208;28;20025;-78
2024/02/06 02:29:26;;;;;;;6.25;3.20;;;;;;;14.44;33.12;100270.31;5030206;28;20037;-77
2024/02/06 02:31:52;;;;;;;6.55;2.97;;;;;;;14.54;32.97;100284.94;5030457;28;20037;-77
2024/02/06 02:34:19;;;;;;;6.00;2.92;;;;;;;14.55;32.49;100275.88;5030170;28;20033;-77
2024/02/06 02:36:45;;;;;;;5.13;2.63;;;;;;;14.64;32.45;100285.19;5021926;28;20034;-77
2024/02/06 02:39:10;;;;;;;6.35;2.72;;;;;;;14.71;32.38;100285.84;5029531;28;20032;-78
2024/02/06 02:41:36;;;;;;;4.80;2.65;;;;;;;14.60;32.13;100262.56;5029292;28;20022;-78
2024/02/06 02:44:02;;;;;;;6.13;2.78;;;;;;;14.68;31.99;100270.22;5028110;28;20053;-77
2024/02/06 02:46:27;;;;;;;4.80;2.58;;;;;;;14.78;31.85;100286.50;5029247;28;20405;-78
2024/02/06 02:48:53;;;;;;;7.25;2.58;;;;;;;14.71;31.73;100288.53;5029233;28;20045;-77
2024/02/06 02:51:18;;;;;;;6.38;2.78;;;;;;;14.72;31.92;100286.66;5029774;28;20506;-77
2024/02/06 02:53:44;;;;;;;5.22;2.90;;;;;;;14.58;31.76;100270.03;5029019;28;20605;-76
2024/02/06 02:56:09;;;;;;;5.30;2.60;;;;;;;14.85;31.55;100292.56;5027955;28;20133;-76
2024/02/06 02:58:34;;;;;;;7.75;2.88;;;;;;;14.68;31.53;100280.94;5019971;28;20033;-77
2024/02/06 03:01:00;;;;;;;7.30;2.72;;;;;;;14.79;31.56;100309.63;5019673;28;20021;-76
2024/02/06 03:03:25;;;;;;;4.57;2.80;;;;;;;14.86;31.07;100304.09;5029229;28;20056;-78
2024/02/06 03:05:51;;;;;;;5.55;2.60;;;;;;;14.80;31.21;100297.00;5028856;28;20029;-78
2024/02/06 03:08:16;;;;;;;6.47;2.60;;;;;;;14.94;30.87;100321.69;5028638;28;20395;-77
2024/02/06 03:10:42;;;;;;;6.35;2.90;;;;;;;14.91;30.93;100316.78;5029740;28;20521;-77
2024/02/06 03:13:07;;;;;;;8.02;2.90;;;;;;;14.80;31.03;100327.34;5031566;28;20037;-77
2024/02/06 03:15:32;;;;;;;7.10;2.60;;;;;;;14.72;30.85;100300.91;5018384;28;20054;-77
2024/02/06 03:17:58;;;;;;;8.38;3.08;;;;;;;14.84;31.00;100328.50;5016685;28;20498;-78
2024/02/06 03:20:23;;;;;;;4.75;2.58;;;;;;;14.96;31.10;100349.94;5027382;28;20117;-78
2024/02/06 03:22:48;;;;;;;7.90;2.90;;;;;;;14.90;30.63;100337.47;5028674;28;20466;-78
2024/02/06 03:25:15;;;;;;;5.43;2.42;;;;;;;14.78;30.84;100310.66;5027319;28;20033;-77
2024/02/06 03:27:43;;;;;;;6.60;2.50;;;;;;;14.76;30.80;100310.09;5032952;28;20099;-77
2024/02/06 03:30:08;;;;;;;;;;;;;;;14.80;31.04;100331.91;5027908;28;20537;-78
2024/02/06 03:32:34;;;;;;;6.20;2.60;;;;;;;14.73;31.02;100315.13;5027390;28;19948;-77
2024/02/06 03:35:00;;;;;;;5.68;2.97;;;;;;;14.61;31.11;100320.56;5028380;28;20068;-77
2024/02/06 03:37:25;;;;;;;6.00;2.90;;;;;;;14.64;30.97;100298.59;5028802;28;20106;-77
2024/02/06 03:39:51;;;;;;;5.03;2.72;;;;;;;14.81;30.78;100326.31;5027275;28;20022;-77
2024/02/06 03:42:17;;;;;;;8.20;3.30;;;;;;;14.83;30.81;100334.94;5027959;28;20453;-78
2024/02/06 03:44:43;;;;;;;7.78;2.80;;;;;;;14.77;30.71;100330.53;5028355;28;20030;-77
2024/02/06 03:47:08;;;;;;;5.88;2.60;;;;;;;14.76;30.79;100325.41;5028538;28;20041;-76
2024/02/06 03:49:33;;;;;;;5.20;2.40;;;;;;;14.77;30.61;100330.53;5028413;28;20117;-78
2024/02/06 03:51:59;;;;;;;5.68;2.67;;;;;;;14.79;30.79;100298.88;5026577;28;20492;-77
2024/02/06 03:54:24;;;;;;;6.13;2.58;;;;;;;14.85;30.35;100326.63;5028328;28;20083;-77
2024/02/06 03:56:50;;;;;;;7.32;3.22;;;;;;;14.85;30.25;100335.50;5028102;28;20033;-77
2024/02/06 03:59:15;;;;;;;5.57;2.70;;;;;;;14.84;30.34;100307.03;5027474;28;20061;-77
2024/02/06 04:01:40;;;;;;;4.78;2.60;;;;;;;15.02;30.11;100343.59;5016855;28;20108;-76
2024/02/06 04:04:07;;;;;;;7.03;2.70;;;;;;;14.96;29.88;100333.00;5014793;28;20037;-78
2024/02/06 04:06:32;;;;;;;7.40;2.42;;;;;;;14.91;29.87;100340.97;5028007;28;20036;-77
2024/02/06 04:08:57;;;;;;;5.13;2.63;;;;;;;15.03;29.89;100347.91;5027602;28;20120;-77
2024/02/06 04:11:23;;;;;;;5.78;2.28;;;;;;;14.90;29.77;100336.66;5027226;28;20032;-78
2024/02/06 04:13:48;;;;;;;6.35;2.55;;;;;;;14.86;29.85;100350.56;5011065;28;20037;-77
2024/02/06 04:16:14;;;;;;;6.10;2.85;;;;;;;14.83;29.79;100328.72;5008004;28;20014;-77
2024/02/06 04:18:39;;;;;;;6.43;2.83;;;;;;;14.97;29.69;100353.44;5015269;28;20041;-77
2024/02/06 04:21:05;;;;;;;6.30;2.17;;;;;;;14.95;29.54;100355.53;5026873;28;20033;-76
2024/02/06 04:23:31;;;;;;;4.53;2.20;;;;;;;14.99;29.36;100362.06;5027699;28;20475;-77
2024/02/06 04:25:56;;;;;;;7.60;2.78;;;;;;;14.95;29.87;100375.16;5027783;28;20137;-77
2024/02/06 04:28:22;;;;;;;6.05;2.58;;;;;;;14.85;29.86;100362.38;5027707;28;20037;-78
2024/02/06 04:30:47;;;;;;;6.95;2.80;;;;;;;14.86;29.82;100374.72;5026360;28;20457;-77
2024/02/06 04:33:13;;;;;;;4.43;2.55;;;;;;;14.69;29.84;100352.41;5019628;28;20041;-76
2024/02/06 04:35:38;;;;;;;5.95;2.30;;;;;;;14.82;29.95;100367.41;5011378;28;20099;-76
2024/02/06 04:38:06;;;;;;;5.70;2.58;;;;;;;14.91;29.84;100376.69;5027501;28;20029;-77
2024/02/06 04:40:32;;;;;;;;;;;;;;;14.85;29.67;100367.75;5026680;28;20471;-78
2024/02/06 04:42:58;;;;;;;6.63;2.55;;;;;;;14.69;29.61;100349.72;5027886;28;19913;-76
2024/02/06 04:45:24;;;;;;;5.10;2.40;;;;;;;14.56;30.00;100332.00;5026214;28;20041;-76
2024/02/06 04:47:50;;;;;;;6.25;3.00;;;;;;;14.78;29.43;100371.63;5027272;28;20409;-76
2024/02/06 04:50:18;;;;;;;6.80;2.30;;;;;;;14.80;29.88;100370.31;5027852;28;20522;-77
2024/02/06 04:52:44;;;;;;;6.50;2.47;;;;;;;14.66;29.90;100374.31;5036726;28;20025;-77
2024/02/06 04:55:10;;;;;;;4.78;2.30;;;;;;;14.65;29.97;100365.47;5047306;28;20044;-77
2024/02/06 04:57:35;;;;;;;4.95;2.10;;;;;;;14.52;29.87;100360.31;5045303;28;20025;-77
2024/02/06 05:00:01;;;;;;;5.72;2.50;;;;;;;14.70;29.55;100380.84;5023649;28;20498;-77
2024/02/06 05:02:26;;;;;;;5.90;2.30;;;;;;;14.61;29.97;100371.56;5029582;28;20031;-78
2024/02/06 05:04:52;;;;;;;5.88;2.28;;;;;;;14.62;29.91;100382.03;5027241;28;20083;-77
2024/02/06 05:07:17;;;;;;;4.75;2.22;;;;;;;14.72;29.34;100389.47;5027227;28;20025;-76
2024/02/06 05:09:43;;;;;;;4.65;2.42;;;;;;;14.57;29.91;100391.88;5025567;28;20154;-76
2024/02/06 05:12:08;;;;;;;5.07;2.38;;;;;;;14.54;30.00;100386.94;5018924;28;20021;-76
2024/02/06 05:14:34;;;;;;;5.78;2.25;;;;;;;14.70;29.51;100391.59;5023664;28;20072;-76
2024/02/06 05:16:59;;;;;;;5.60;2.40;;;;;;;14.64;29.81;100400.59;5006097;28;20030;-77
2024/02/06 05:19:24;;;;;;;7.95;2.20;;;;;;;14.52;30.11;100389.03;5013843;28;20059;-77
2024/02/06 05:21:50;;;;;;;4.15;2.35;;;;;;;14.47;30.30;100409.34;5026809;28;20033;-77
2024/02/06 05:24:16;;;;;;;6.88;2.65;;;;;;;14.23;31.17;100410.44;5029394;28;20064;-78
2024/02/06 05:26:42;;;;;;;26.08;23.52;;;;;;;13.59;32.37;100391.53;5027190;28;20037;-77
2024/02/06 05:29:07;;;;;;;15.73;10.75;;;;;;;13.42;33.31;100399.41;5027009;28;20029;-78
2024/02/06 05:31:33;;;;;;;213.95;120.20;;;;;;;13.65;32.80;100418.22;5026128;28;20030;-78
2024/02/06 05:33:59;;;;;;;117.15;59.13;;;;;;;13.50;33.59;100404.41;5015920;28;20491;-77
2024/02/06 05:36:25;;;;;;;8.60;4.25;;;;;;;13.44;33.77;100410.69;5021222;28;20088;-77
2024/02/06 05:38:51;;;;;;;7.75;3.20;;;;;;;13.07;34.57;100405.44;5019129;28;20022;-77
2024/02/06 05:41:17;;;;;;;7.82;3.35;;;;;;;13.04;35.12;100416.59;5029563;28;20075;-77
2024/02/06 05:43:43;;;;;;;13.73;7.00;;;;;;;12.90;35.07;100423.16;5041382;28;20043;-78
2024/02/06 05:46:08;;;;;;;135.48;102.13;;;;;;;12.68;35.64;100420.13;5050499;28;20425;-77
2024/02/06 05:48:34;;;;;;;64.13;50.30;;;;;;;12.77;35.37;100427.66;5037874;28;20415;-77
2024/02/06 05:51:01;;;;;;;47.88;42.67;;;;;;;12.53;35.51;100415.16;5030665;28;20029;-77
2024/02/06 05:53:27;;;;;;;15.10;11.30;;;;;;;12.40;36.14;100422.31;5030156;28;20086;-77
2024/02/06 05:55:52;;;;;;;10.88;5.72;;;;;;;12.69;36.05;100435.97;5062614;28;20033;-77
2024/02/06 05:58:18;;;;;;;18.08;14.55;;;;;;;12.31;36.46;100417.47;5029060;28;20025;-76
2024/02/06 06:00:43;;;;;;;16.63;9.63;;;;;;;12.39;35.80;100417.16;5048657;28;20080;-77
2024/02/06 06:03:08;;;;;;;45.55;39.47;;;;;;;12.41;35.70;100426.59;5018157;28;20025;-76
2024/02/06 06:05:34;;;;;;;42.00;35.30;;;;;;;12.07;36.60;100422.59;5030078;28;20041;-77
2024/02/06 06:07:59;;;;;;;15.15;10.13;;;;;;;12.26;36.01;100420.81;5030764;28;20029;-77
2024/02/06 06:10:25;;;;;;;11.20;8.18;;;;;;;12.44;35.64;100444.91;5029643;28;20112;-76
2024/02/06 06:12:50;;;;;;;43.35;39.03;;;;;;;12.29;35.79;100420.34;5030303;28;20056;-77
2024/02/06 06:15:16;;;;;;;18.20;11.75;;;;;;;12.57;35.25;100424.38;5029886;28;20085;-77
2024/02/06 06:17:42;;;;;;;10.45;5.07;;;;;;;12.80;35.22;100443.25;5011017;28;20087;-76
2024/02/06 06:20:07;;;;;;;9.55;4.50;;;;;;;12.85;34.81;100435.38;5018137;28;20049;-77
2024/02/06 06:22:33;;;;;;;47.50;39.63;;;;;;;12.72;35.00;100414.09;5030202;28;20029;-77
2024/02/06 06:24:58;;;;;;;6.03;3.38;;;;;;;12.93;34.57;100446.81;5022213;28;20046;-76
2024/02/06 06:27:24;;;;;;;11.63;6.50;;;;;;;13.04;34.41;100438.03;5010286;28;20415;-76
2024/02/06 06:29:49;;;;;;;8.30;3.10;;;;;;;13.00;35.49;100437.66;5029060;28;20029;-77
2024/02/06 06:32:14;;;;;;;6.20;3.75;;;;;;;12.89;35.57;100441.06;5037749;28;20032;-78
2024/02/06 06:34:41;;;;;;;9.82;3.90;;;;;;;12.70;35.74;100426.91;5038154;28;20029;-78
2024/02/06 06:37:07;;;;;;;11.93;5.57;;;;;;;12.79;36.18;100452.31;5039248;28;20029;-78
2024/02/06 06:39:32;;;;;;;9.07;3.70;;;;;;;12.83;36.12;100439.28;5037752;28;20087;-78
2024/02/06 06:41:58;;;;;;;10.40;4.45;;;;;;;12.81;35.67;100434.19;5029192;28;20029;-78
2024/02/06 06:44:23;;;;;;;7.95;3.55;;;;;;;12.75;36.06;100445.78;5029217;28;20037;-77
2024/02/06 06:46:49;;;;;;;11.52;3.90;;;;;;;12.85;36.03;100429.19;5030155;28;20018;-77
2024/02/06 06:49:15;;;;;;;11.98;5.25;;;;;;;12.83;36.79;100437.44;5029464;28;20040;-79
2024/02/06 06:51:43;;;;;;;11.73;5.75;;;;;;;12.95;36.13;100444.72;5027973;28;20034;-78
2024/02/06 06:54:08;;;;;;;19.63;5.63;;;;;;;12.93;36.60;100430.75;5029554;28;20041;-79
2024/02/06 06:56:33;;;;;;;9.73;5.20;;;;;;;12.98;36.23;100441.59;5027937;28;21004;-77
2024/02/06 06:58:59;;;;;;;8.60;4.65;;;;;;;13.05;36.13;100435.09;5029166;28;20030;-78
2024/02/06 07:01:24;;;;;;;9.90;3.92;;;;;;;13.00;36.64;100434.16;5029088;28;20025;-78
2024/02/06 07:03:50;;;;;;;12.77;4.00;;;;;;;13.18;36.36;100423.41;5029151;28;20036;-78
2024/02/06 07:06:16;;;;;;;20.50;7.25;;;;;;;13.46;36.20;100440.75;5021804;28;20034;-78
2024/02/06 07:08:41;;;;;;;25.67;16.05;;;;;;;13.44;36.48;100434.81;5022565;28;20033;-79
2024/02/06 07:11:07;;;;;;;11.50;4.70;;;;;;;13.53;36.69;100430.78;5029078;28;20529;-78
2024/02/06 07:13:32;;;;;;;7.70;3.72;;;;;;;13.70;36.69;100430.09;5027291;28;20040;-77
2024/02/06 07:15:57;;;;;;;7.90;4.28;;;;;;;13.78;37.16;100432.44;5025236;28;20037;-78
2024/02/06 07:18:23;;;;;;;12.13;4.38;;;;;;;13.67;36.82;100396.56;5027378;28;20490;-77
2024/02/06 07:20:49;;;;;;;8.40;4.05;;;;;;;14.06;36.32;100437.94;5027105;28;20021;-77
2024/02/06 07:23:14;;;;;;;9.15;3.78;;;;;;;14.12;35.29;100417.44;5048609;28;20146;-78
2024/02/06 07:25:40;;;;;;;7.47;3.95;;;;;;;14.15;35.13;100408.91;5030395;28;20034;-78
2024/02/06 07:28:06;;;;;;;10.15;4.78;;;;;;;14.47;34.87;100436.19;5028599;28;20060;-78
2024/02/06 07:30:31;;;;;;;8.95;4.47;;;;;;;14.63;34.26;100431.19;5028508;28;20056;-78
2024/02/06 07:32:57;;;;;;;11.70;6.25;;;;;;;14.91;33.41;100425.00;5028492;28;20037;-78
2024/02/06 07:35:22;;;;;;;11.10;4.60;;;;;;;15.37;31.57;100438.50;5026928;28;20613;-77
2024/02/06 07:37:47;;;;;;;10.13;4.05;;;;;;;15.37;31.89;100423.19;5010483;28;20492;-78
2024/02/06 07:40:13;;;;;;;8.77;3.05;;;;;;;15.65;32.23;100445.69;5024975;28;20478;-77
2024/02/06 07:42:38;;;;;;;8.48;3.13;;;;;;;15.74;32.11;100449.66;5026960;28;20057;-77
2024/02/06 07:45:04;;;;;;;6.75;3.13;;;;;;;15.87;32.00;100432.38;5023391;28;20041;-78
2024/02/06 07:47:30;;;;;;;6.28;2.65;;;;;;;16.01;31.10;100428.31;5026996;28;20036;-77
2024/02/06 07:49:55;;;;;;;7.05;2.88;;;;;;;15.98;31.79;100423.44;5028184;28;20049;-78
2024/02/06 07:52:21;;;;;;;6.68;2.42;;;;;;;16.33;30.86;100433.06;5028239;28;20534;-77
2024/02/06 07:54:47;;;;;;;5.82;2.83;;;;;;;16.48;30.25;100422.50;5025817;28;20037;-77
2024/02/06 07:57:12;;;;;;;7.63;3.00;;;;;;;16.83;30.26;100428.63;5028596;28;20096;-78
2024/02/06 07:59:38;;;;;;;6.35;3.25;;;;;;;17.07;29.75;100429.16;5027902;28;20025;-78
2024/02/06 08:02:03;;;;;;;7.10;2.80;;;;;;;16.97;28.68;100435.25;5026614;28;20033;-78
2024/02/06 08:04:29;;;;;;;6.28;2.80;;;;;;;16.91;28.73;100425.47;5026416;28;20116;-78
2024/02/06 08:06:54;;;;;;;5.88;2.28;;;;;;;17.01;28.75;100422.09;5028167;28;20037;-78
2024/02/06 08:09:20;;;;;;;10.20;2.90;;;;;;;17.27;29.27;100423.97;5022026;28;20026;-79
2024/02/06 08:11:46;;;;;;;7.95;3.00;;;;;;;17.43;28.81;100426.84;5020273;28;20025;-76
2024/02/06 08:14:13;;;;;;;6.95;3.60;;;;;;;17.66;28.34;100415.72;5027199;28;20069;-76
2024/02/06 08:16:39;;;;;;;8.60;5.20;;;;;;;17.50;28.35;100413.94;5027071;28;20033;-76
2024/02/06 08:19:05;;;;;;;8.13;4.47;;;;;;;17.82;27.76;100434.72;5027579;28;20041;-77
2024/02/06 08:21:30;;;;;;;20.08;7.03;;;;;;;17.92;27.79;100421.34;5027618;28;20025;-77
2024/02/06 08:23:56;;;;;;;13.40;5.72;;;;;;;18.02;27.52;100407.09;5020750;28;20029;-77
2024/02/06 08:26:21;;;;;;;13.55;6.65;;;;;;;18.32;26.62;100435.34;5027405;28;20477;-76
2024/02/06 08:28:47;;;;;;;13.48;6.30;;;;;;;18.41;27.23;100437.31;5027724;28;20076;-76
2024/02/06 08:31:13;;;;;;;8.50;4.72;;;;;;;18.61;27.38;100427.66;5026345;28;20029;-76
2024/02/06 08:33:38;;;;;;;8.20;4.03;;;;;;;18.69;26.03;100424.44;5027239;28;20032;-77
2024/02/06 08:36:04;;;;;;;10.90;5.15;;;;;;;18.66;26.01;100401.50;5023846;28;20026;-76
2024/02/06 08:38:30;;;;;;;8.35;3.80;;;;;;;18.72;26.39;100423.13;5047081;28;20052;-76
2024/02/06 08:40:55;;;;;;;9.23;3.70;;;;;;;18.69;26.06;100437.97;5007412;28;20056;-76
2024/02/06 08:43:21;;;;;;;9.27;3.58;;;;;;;18.99;26.35;100431.09;5026664;28;20120;-77
2024/02/06 08:45:49;;;;;;;7.45;2.78;;;;;;;19.00;26.01;100427.28;5027113;28;20713;-77
2024/02/06 08:48:15;;;;;;;5.38;2.75;;;;;;;19.26;25.75;100428.97;5027442;28;20108;-76
2024/02/06 08:50:42;;;;;;;7.65;2.53;;;;;;;19.39;24.94;100432.25;5027675;28;20116;-77
2024/02/06 08:53:09;;;;;;;7.70;2.50;;;;;;;19.48;25.22;100430.63;5026127;28;20034;-76
2024/02/06 08:55:34;;;;;;;11.07;3.58;;;;;;;19.47;24.85;100415.47;5029343;28;20028;-77
2024/02/06 08:58:00;;;;;;;7.80;3.40;;;;;;;19.58;24.33;100414.41;5026135;28;20025;-76
2024/02/06 09:00:26;;;;;;;4.18;2.28;;;;;;;20.02;24.35;100432.84;5027430;28;20083;-77
2024/02/06 09:02:54;;;;;;;6.07;2.22;;;;;;;20.16;23.64;100437.66;5039818;28;20082;-76
2024/02/06 09:05:19;;;;;;;7.75;1.70;;;;;;;20.00;23.14;100418.75;5037119;28;20038;-77
2024/02/06 09:07:45;;;;;;;5.88;2.00;;;;;;;20.16;23.41;100433.06;5027873;28;20057;-77
2024/02/06 09:10:11;;;;;;;5.40;2.05;;;;;;;20.19;23.22;100423.59;5027053;28;20440;-76
2024/02/06 09:12:36;;;;;;;6.68;1.67;;;;;;;20.28;22.92;100446.31;5028407;28;21065;-76
2024/02/06 09:15:01;;;;;;;3.50;1.85;;;;;;;20.42;22.91;100428.41;5028115;28;20041;-76
2024/02/06 09:17:28;;;;;;;6.25;2.13;;;;;;;20.56;22.80;100436.75;5027588;28;20046;-75
2024/02/06 09:19:53;;;;;;;4.45;1.88;;;;;;;20.91;22.26;100432.31;5027642;28;20033;-76
2024/02/06 09:22:19;;;;;;;5.70;2.00;;;;;;;21.12;22.27;100430.28;5027545;28;20065;-76
2024/02/06 09:24:44;;;;;;;4.80;1.58;;;;;;;21.24;22.59;100441.59;5027119;28;20425;-76
2024/02/06 09:27:10;;;;;;;4.20;1.90;;;;;;;21.38;22.08;100439.06;5027415;28;20034;-76
2024/02/06 09:29:35;;;;;;;4.57;1.70;;;;;;;21.62;22.07;100435.69;5027328;28;20112;-77
2024/02/06 09:32:00;;;;;;;6.07;1.90;;;;;;;21.65;21.88;100441.34;5027525;28;20973;-76
2024/02/06 09:34:26;;;;;;;4.25;1.83;;;;;;;21.37;21.83;100415.78;5027886;28;20105;-76
2024/02/06 09:36:51;;;;;;;2.63;1.58;;;;;;;21.53;21.72;100415.66;5026659;28;20042;-77
2024/02/06 09:39:17;;;;;;;5.75;2.08;;;;;;;21.53;21.67;100421.91;5008170;28;20022;-78
2024/02/06 09:41:45;;;;;;;5.72;1.60;;;;;;;22.03;21.76;100419.84;5021467;28;20196;-78
2024/02/06 09:44:11;;;;;;;3.08;1.40;;;;;;;21.95;21.24;100416.94;5043227;28;20036;-78
2024/02/06 09:46:37;;;;;;;3.40;1.55;;;;;;;22.14;21.64;100419.72;5028746;28;20048;-76
2024/02/06 09:49:03;;;;;;;5.43;2.50;;;;;;;22.41;21.37;100403.72;5026130;28;20033;-77
2024/02/06 09:51:32;;;;;;;15.32;7.25;;;;;;;22.47;21.74;100407.16;5035905;28;20033;-76
2024/02/06 09:53:59;;;;;;;5.88;2.10;;;;;;;22.13;20.99;100410.78;5035590;28;20065;-77
2024/02/06 09:56:28;;;;;;;8.23;1.55;;;;;;;22.08;21.00;100398.03;5038162;28;20060;-76
2024/02/06 09:58:57;;;;;;;4.50;1.90;;;;;;;22.23;21.06;100407.13;5036103;28;20033;-76
2024/02/06 10:01:23;;;;;;;3.85;1.73;;;;;;;22.49;20.99;100401.44;5035673;28;20053;-76
2024/02/06 10:03:50;;;;;;;7.03;2.13;;;;;;;22.13;20.74;100363.78;5034118;28;20053;-77
2024/02/06 10:06:22;;;;;;;4.35;1.42;;;;;;;22.25;20.28;100396.81;5035122;28;20053;-77
2024/02/06 10:08:49;;;;;;;6.22;1.63;;;;;;;22.21;21.16;100414.75;5029019;28;20410;-76
2024/02/06 10:11:20;;;;;;;6.40;1.85;;;;;;;22.14;20.74;100395.28;5016202;28;20384;-77
2024/02/06 10:13:48;;;;;;;3.25;1.40;;;;;;;22.54;20.51;100395.97;5027866;28;20562;-77
2024/02/06 10:16:13;;;;;;;;;;;;;;;22.75;20.14;100394.59;5037922;28;20075;-76
2024/02/06 10:18:51;;;;;;;3.38;1.38;;;;;;;22.60;20.38;100381.22;5035388;28;20534;-78
2024/02/06 10:21:16;;;;;;;;;;;;;;;22.57;19.65;100376.34;5020886;28;20113;-76
2024/02/06 10:23:42;;;;;;;5.05;1.55;;;;;;;22.81;20.07;100374.38;5038604;28;19983;-76
2024/02/06 10:26:07;;;;;;;4.10;1.60;;;;;;;22.61;19.35;100355.63;5042657;28;20025;-77
2024/02/06 10:28:33;;;;;;;4.32;1.58;;;;;;;22.93;19.33;100360.34;5042935;28;20025;-77
2024/02/06 10:30:58;;;;;;;5.38;1.58;;;;;;;23.04;20.21;100358.31;5037740;28;20104;-77
2024/02/06 10:33:23;;;;;;;3.47;1.58;;;;;;;23.44;19.81;100361.50;5039499;28;20025;-77
2024/02/06 10:35:49;;;;;;;4.72;1.83;;;;;;;23.34;19.51;100350.78;5038753;28;20037;-77
2024/02/06 10:38:16;;;;;;;1.95;1.30;;;;;;;23.25;19.17;100351.47;5031339;28;20033;-77
2024/02/06 10:40:43;;;;;;;3.75;1.52;;;;;;;23.38;19.44;100343.66;5039424;28;20029;-76
2024/02/06 10:43:10;;;;;;;3.45;1.40;;;;;;;23.57;19.16;100338.13;5038617;28;20017;-77
2024/02/06 10:45:35;;;;;;;5.10;1.40;;;;;;;23.96;19.39;100340.44;5021745;28;20048;-77
2024/02/06 10:48:02;;;;;;;8.57;1.70;;;;;;;23.92;18.79;100342.16;5036765;28;20021;-76
2024/02/06 10:50:29;;;;;;;3.97;1.60;;;;;;;24.15;18.52;100339.53;5025088;28;20037;-77
2024/02/06 10:52:55;;;;;;;3.35;1.50;;;;;;;24.09;17.99;100321.66;5033306;28;20026;-77
2024/02/06 10:55:21;;;;;;;4.15;1.48;;;;;;;23.86;18.40;100300.59;5028258;28;20037;-77
2024/02/06 10:57:47;;;;;;;5.10;1.33;;;;;;;23.59;18.03;100320.41;5034294;28;20337;-77
2024/02/06 11:00:20;;;;;;;2.95;1.33;;;;;;;23.64;18.45;100319.53;5038117;28;20060;-76
2024/02/06 11:02:53;;;;;;;5.55;1.42;;;;;;;23.72;18.24;100293.50;5038061;28;20018;-77
2024/02/06 11:05:26;;;;;;;2.88;1.40;;;;;;;24.11;18.20;100306.66;5037930;28;20021;-76
2024/02/06 11:07:56;;;;;;;5.20;1.98;;;;;;;24.74;17.72;100302.31;5037285;28;20039;-77
2024/02/06 11:10:43;;;;;;;6.88;1.40;;;;;;;24.69;17.59;100288.81;5038269;28;20028;-77
2024/02/06 11:13:27;;;;;;;3.77;1.47;;;;;;;24.85;17.72;100294.72;5037772;28;20029;-77
2024/02/06 11:15:53;;;;;;;3.63;1.30;;;;;;;24.58;17.08;100288.22;5021170;28;20049;-77
2024/02/06 11:18:21;;;;;;;4.07;1.80;;;;;;;24.52;17.33;100288.63;5035186;28;20052;-77